createdAt,value
2017-12-15T00:02:14.136Z,31.83
2017-12-15T00:04:45.069Z,27.40
2017-12-15T00:07:14.359Z,27.80
2017-12-15T00:09:44.290Z,34.03
2017-12-15T00:12:14.689Z,33.10
2017-12-15T00:14:44.528Z,24.90
2017-12-15T00:17:14.790Z,29.90
2017-12-15T00:19:45.323Z,26.50
2017-12-15T00:22:17.555Z,20.57
2017-12-15T00:25:02.188Z,26.73
2017-12-15T00:27:32.027Z,17.80
2017-12-15T00:30:03.579Z,24.30
2017-12-15T00:32:34.505Z,22.10
2017-12-15T00:35:04.483Z,29.50
2017-12-15T00:37:33.635Z,17.97
2017-12-15T00:40:03.584Z,18.90
2017-12-15T00:42:35.204Z,28.20
2017-12-15T00:45:05.051Z,23.13
2017-12-15T00:47:34.252Z,17.37
2017-12-15T00:50:03.454Z,26.80
2017-12-15T00:52:33.572Z,22.43
2017-12-15T00:55:02.749Z,17.40
2017-12-15T00:57:33.085Z,22.07
2017-12-15T01:00:03.260Z,17.20
2017-12-15T01:02:32.380Z,20.33
2017-12-15T01:05:02.331Z,18.93
2017-12-15T01:07:31.391Z,19.37
2017-12-15T01:10:02.683Z,28.90
2017-12-15T01:12:33.310Z,27.53
2017-12-15T01:15:03.854Z,28.53
2017-12-15T01:17:34.125Z,22.03
2017-12-15T01:20:05.465Z,27.40
2017-12-15T01:22:37.989Z,31.47
2017-12-15T01:25:09.598Z,27.57
2017-12-15T01:27:40.373Z,34.13
2017-12-15T01:30:10.194Z,27.00
2017-12-15T01:32:40.133Z,31.43
2017-12-15T01:35:10.960Z,23.20
2017-12-15T01:37:41.358Z,25.87
2017-12-15T01:40:11.440Z,25.37
2017-12-15T01:42:40.649Z,25.20
2017-12-15T01:45:10.839Z,38.13
2017-12-15T01:47:40.714Z,35.20
2017-12-15T01:50:10.549Z,36.23
2017-12-15T01:52:40.826Z,34.00
2017-12-15T01:55:11.668Z,26.07
2017-12-15T01:57:40.648Z,24.60
2017-12-15T02:00:10.539Z,31.63
2017-12-15T02:05:41.999Z,39.10
2017-12-15T02:08:12.172Z,30.43
2017-12-15T02:10:41.115Z,30.50
2017-12-15T02:13:12.116Z,29.00
2017-12-15T02:15:41.310Z,27.57
2017-12-15T02:18:10.377Z,34.87
2017-12-15T02:20:39.382Z,32.13
2017-12-15T02:23:08.475Z,42.40
2017-12-15T02:25:39.415Z,34.83
2017-12-15T02:28:09.595Z,25.90
2017-12-15T02:30:40.355Z,29.13
2017-12-15T02:33:09.362Z,28.10
2017-12-15T02:35:40.055Z,29.40
2017-12-15T02:38:11.410Z,24.83
2017-12-15T02:43:20.560Z,25.50
2017-12-15T02:45:49.488Z,24.80
2017-12-15T02:48:20.078Z,24.17
2017-12-15T02:50:49.151Z,32.80
2017-12-15T02:53:18.271Z,32.50
2017-12-15T02:55:48.391Z,23.50
2017-12-15T03:00:53.224Z,22.60
2017-12-15T03:03:22.628Z,29.17
2017-12-15T03:05:51.940Z,26.10
2017-12-15T03:08:21.856Z,26.77
2017-12-15T03:10:54.843Z,27.87
2017-12-15T03:13:24.378Z,25.53
2017-12-15T03:15:54.366Z,24.33
2017-12-15T03:18:23.671Z,26.33
2017-12-15T03:20:52.967Z,21.33
2017-12-15T03:23:22.073Z,18.97
2017-12-15T03:25:53.630Z,21.37
2017-12-15T03:28:23.740Z,23.97
2017-12-15T03:30:57.824Z,25.43
2017-12-15T03:33:27.770Z,23.53
2017-12-15T03:35:56.857Z,28.00
2017-12-15T03:38:27.121Z,30.50
2017-12-15T03:40:57.402Z,35.90
2017-12-15T03:43:26.504Z,29.03
2017-12-15T03:45:57.482Z,29.70
2017-12-15T03:48:29.574Z,23.60
2017-12-15T03:50:59.401Z,27.33
2017-12-15T03:53:28.529Z,27.77
2017-12-15T03:55:57.518Z,29.73
2017-12-15T03:58:30.443Z,27.30
2017-12-15T04:00:59.495Z,25.23
2017-12-15T04:03:33.178Z,23.17
2017-12-15T04:06:03.374Z,25.77
2017-12-15T04:08:32.619Z,25.43
2017-12-15T04:11:02.774Z,28.60
2017-12-15T04:13:34.007Z,34.23
2017-12-15T04:16:02.984Z,26.13
2017-12-15T04:18:32.948Z,31.47
2017-12-15T04:21:03.166Z,31.60
2017-12-15T04:23:34.105Z,25.37
2017-12-15T04:26:03.161Z,27.80
2017-12-15T04:28:33.067Z,24.30
2017-12-15T04:31:04.112Z,26.30
2017-12-15T04:33:33.820Z,27.40
2017-12-15T04:36:03.021Z,21.70
2017-12-15T04:38:32.876Z,22.20
2017-12-15T04:41:01.961Z,27.87
2017-12-15T04:43:31.844Z,37.53
2017-12-15T04:46:00.904Z,39.03
2017-12-15T04:48:35.142Z,35.80
2017-12-15T04:51:04.456Z,40.97
2017-12-15T04:53:33.408Z,31.50
2017-12-15T04:56:02.644Z,28.20
2017-12-15T05:01:06.663Z,27.90
2017-12-15T05:03:36.683Z,41.83
2017-12-15T05:06:06.553Z,25.43
2017-12-15T05:08:36.732Z,27.53
2017-12-15T05:11:07.620Z,24.43
2017-12-15T05:19:12.808Z,43.63
2017-12-15T05:21:41.759Z,48.87
2017-12-15T05:26:46.796Z,21.63
2017-12-15T05:29:15.873Z,33.93
2017-12-15T05:31:45.993Z,23.03
2017-12-15T05:34:17.036Z,24.27
2017-12-15T05:36:53.747Z,27.10
2017-12-15T05:39:23.090Z,27.23
2017-12-15T05:41:52.206Z,25.47
2017-12-15T05:44:22.321Z,30.70
2017-12-15T05:46:52.476Z,27.20
2017-12-15T05:49:21.448Z,28.67
2017-12-15T05:51:51.194Z,28.20
2017-12-15T05:54:20.191Z,23.57
2017-12-15T05:56:50.363Z,22.97
2017-12-15T05:59:20.395Z,18.03
2017-12-15T06:01:50.323Z,21.57
2017-12-15T06:04:19.992Z,22.20
2017-12-15T06:06:49.938Z,23.53
2017-12-15T06:09:19.290Z,21.50
2017-12-15T06:11:48.491Z,20.40
2017-12-15T06:14:18.584Z,23.00
2017-12-15T06:16:47.812Z,21.23
2017-12-15T06:19:17.854Z,37.37
2017-12-15T06:21:49.640Z,22.40
2017-12-15T06:24:19.382Z,19.90
2017-12-15T06:26:49.008Z,20.67
2017-12-15T06:29:18.770Z,19.93
2017-12-15T06:31:47.998Z,22.33
2017-12-15T06:34:20.303Z,18.87
2017-12-15T06:36:49.746Z,20.07
2017-12-15T06:39:19.735Z,17.30
2017-12-15T06:41:49.044Z,16.73
2017-12-15T06:44:18.191Z,17.73
2017-12-15T06:46:47.314Z,16.97
2017-12-15T06:49:16.580Z,12.03
2017-12-15T06:51:45.788Z,11.30
2017-12-15T06:54:14.850Z,10.00
2017-12-15T06:56:47.023Z,14.00
2017-12-15T06:59:17.717Z,10.13
2017-12-15T07:01:52.892Z,14.10
2017-12-15T07:04:22.012Z,12.00
2017-12-15T07:06:52.849Z,8.67
2017-12-15T07:09:24.144Z,11.10
2017-12-15T07:11:54.653Z,11.70
2017-12-15T07:14:23.743Z,12.60
2017-12-15T07:16:55.601Z,14.33
2017-12-15T07:19:24.666Z,9.77
2017-12-15T07:21:54.282Z,18.97
2017-12-15T07:24:23.407Z,16.53
2017-12-15T07:26:55.941Z,13.27
2017-12-15T07:29:25.141Z,18.03
2017-12-15T07:31:54.325Z,11.80
2017-12-15T07:34:23.896Z,15.47
2017-12-15T07:36:53.681Z,9.60
2017-12-15T07:39:22.715Z,30.00
2017-12-15T07:41:52.058Z,34.90
2017-12-15T07:44:22.371Z,52.37
2017-12-15T07:46:51.383Z,76.67
2017-12-15T07:49:21.397Z,85.43
2017-12-15T07:51:51.283Z,98.73
2017-12-15T07:54:22.252Z,78.17
2017-12-15T07:56:51.578Z,82.30
2017-12-15T07:59:20.793Z,94.50
2017-12-15T08:01:49.943Z,83.87
2017-12-15T08:04:18.956Z,50.97
2017-12-15T08:06:48.066Z,49.30
2017-12-15T08:09:17.163Z,52.30
2017-12-15T08:11:46.682Z,42.93
2017-12-15T08:14:15.764Z,80.13
2017-12-15T08:16:44.862Z,75.50
2017-12-15T08:19:17.881Z,81.60
2017-12-15T08:21:47.891Z,72.87
2017-12-15T08:24:16.920Z,78.97
2017-12-15T08:26:48.065Z,63.00
2017-12-15T08:29:18.137Z,49.50
2017-12-15T08:31:47.045Z,40.23
2017-12-15T08:34:16.816Z,36.17
2017-12-15T08:36:45.842Z,33.60
2017-12-15T08:39:14.800Z,31.83
2017-12-15T08:41:44.150Z,24.27
2017-12-15T08:44:13.073Z,58.23
2017-12-15T08:46:43.635Z,67.63
2017-12-15T08:49:14.410Z,64.47
2017-12-15T08:51:43.454Z,63.70
2017-12-15T08:54:12.559Z,61.27
2017-12-15T08:56:41.832Z,59.27
2017-12-15T08:59:11.037Z,69.67
2017-12-15T09:01:40.223Z,53.17
2017-12-15T09:04:19.776Z,52.80
2017-12-15T09:06:53.299Z,29.57
2017-12-15T09:09:22.583Z,34.00
2017-12-15T09:11:51.617Z,50.47
2017-12-15T09:14:20.655Z,66.53
2017-12-15T09:16:49.704Z,63.73
2017-12-15T09:19:18.582Z,94.97
2017-12-15T09:21:47.523Z,81.30
2017-12-15T09:24:17.508Z,83.87
2017-12-15T09:26:46.407Z,80.63
2017-12-15T09:29:15.361Z,100.40
2017-12-15T09:31:46.766Z,95.27
2017-12-15T09:34:17.573Z,78.97
2017-12-15T09:36:49.592Z,75.63
2017-12-15T09:39:18.629Z,81.53
2017-12-15T09:41:47.562Z,68.87
2017-12-15T09:44:17.330Z,71.47
2017-12-15T09:46:46.256Z,66.63
2017-12-15T09:49:15.153Z,75.77
2017-12-15T09:51:44.050Z,73.67
2017-12-15T09:54:12.864Z,64.60
2017-12-15T09:56:41.690Z,69.93
2017-12-15T09:59:11.433Z,57.40
2017-12-15T10:01:40.363Z,59.90
2017-12-15T10:04:09.240Z,70.43
2017-12-15T10:06:38.168Z,61.37
2017-12-15T10:09:07.192Z,72.27
2017-12-15T10:11:36.324Z,54.43
2017-12-15T10:14:06.009Z,54.03
2017-12-15T10:16:34.857Z,52.77
2017-12-15T10:19:04.148Z,42.13
2017-12-15T10:21:33.967Z,48.53
2017-12-15T10:24:03.958Z,44.10
2017-12-15T10:26:33.200Z,42.33
2017-12-15T10:29:03.163Z,45.47
2017-12-15T10:31:32.114Z,49.27
2017-12-15T10:34:01.157Z,52.70
2017-12-15T10:36:30.509Z,46.47
2017-12-15T10:38:59.599Z,53.43
2017-12-15T10:41:28.747Z,38.97
2017-12-15T10:43:57.898Z,41.20
2017-12-15T10:46:27.708Z,49.07
2017-12-15T10:49:00.668Z,46.10
2017-12-15T10:51:29.842Z,43.20
2017-12-15T10:53:59.134Z,37.07
2017-12-15T10:59:04.829Z,46.20
2017-12-15T11:01:34.158Z,40.40
2017-12-15T11:04:04.893Z,46.53
2017-12-15T11:06:33.886Z,64.33
2017-12-15T11:09:03.138Z,44.00
2017-12-15T11:11:33.698Z,46.90
2017-12-15T11:14:04.772Z,45.30
2017-12-15T11:16:37.297Z,46.23
2017-12-15T11:19:06.535Z,50.57
2017-12-15T11:21:35.584Z,44.63
2017-12-15T11:24:07.425Z,44.93
2017-12-15T11:26:37.270Z,38.67
2017-12-15T11:29:06.876Z,30.80
2017-12-15T11:31:37.690Z,29.57
2017-12-15T11:34:07.519Z,36.70
2017-12-15T11:36:37.525Z,35.60
2017-12-15T11:39:06.825Z,39.97
2017-12-15T11:41:35.636Z,40.93
2017-12-15T11:44:04.569Z,39.27
2017-12-15T11:46:33.899Z,41.70
2017-12-15T11:49:02.926Z,33.53
2017-12-15T11:51:32.003Z,33.33
2017-12-15T11:54:02.777Z,32.17
2017-12-15T11:56:31.665Z,35.73
2017-12-15T11:59:01.007Z,36.43
2017-12-15T12:01:30.058Z,34.17
2017-12-15T12:04:00.015Z,27.67
2017-12-15T12:06:29.183Z,24.57
2017-12-15T12:08:59.342Z,26.23
2017-12-15T12:11:28.676Z,22.00
2017-12-15T12:13:57.666Z,21.07
2017-12-15T12:16:27.689Z,20.87
2017-12-15T12:18:56.874Z,19.20
2017-12-15T12:21:27.158Z,21.00
2017-12-15T12:23:56.422Z,18.90
2017-12-15T12:26:26.792Z,19.33
2017-12-15T12:28:55.937Z,19.63
2017-12-15T12:31:25.813Z,18.73
2017-12-15T12:33:54.866Z,21.20
2017-12-15T12:36:23.895Z,21.07
2017-12-15T12:38:53.186Z,22.83
2017-12-15T12:41:22.437Z,19.23
2017-12-15T12:43:59.111Z,18.00
2017-12-15T12:46:28.420Z,16.87
2017-12-15T12:48:57.423Z,17.47
2017-12-15T12:51:27.942Z,18.87
2017-12-15T12:53:57.118Z,18.70
2017-12-15T12:56:26.821Z,14.37
2017-12-15T12:59:01.195Z,18.30
2017-12-15T13:01:30.534Z,13.17
2017-12-15T13:04:00.004Z,19.13
2017-12-15T13:06:29.226Z,15.77
2017-12-15T13:08:58.322Z,15.60
2017-12-15T13:11:27.296Z,14.30
2017-12-15T13:13:59.260Z,12.53
2017-12-15T13:16:29.049Z,17.87
2017-12-15T13:18:58.607Z,13.30
2017-12-15T13:21:28.722Z,14.17
2017-12-15T13:24:00.071Z,12.67
2017-12-15T13:26:30.384Z,13.77
2017-12-15T13:29:00.299Z,13.63
2017-12-15T13:31:29.923Z,14.50
2017-12-15T13:34:00.913Z,19.20
2017-12-15T13:36:30.288Z,9.47
2017-12-15T13:38:59.256Z,13.90
2017-12-15T13:41:28.416Z,15.97
2017-12-15T13:43:58.019Z,16.00
2017-12-15T13:46:28.122Z,13.70
2017-12-15T13:49:01.036Z,12.70
2017-12-15T13:51:30.980Z,18.33
2017-12-15T13:54:00.192Z,12.60
2017-12-15T13:56:31.229Z,12.70
2017-12-15T13:59:01.158Z,15.30
2017-12-15T14:01:30.307Z,13.13
2017-12-15T14:04:00.634Z,12.90
2017-12-15T14:06:30.713Z,14.63
2017-12-15T14:08:59.844Z,20.00
2017-12-15T14:11:31.549Z,14.03
2017-12-15T14:14:00.715Z,30.33
2017-12-15T14:16:30.778Z,21.83
2017-12-15T14:19:00.110Z,19.40
2017-12-15T14:21:29.400Z,17.27
2017-12-15T14:23:59.684Z,18.80
2017-12-15T14:26:31.687Z,20.40
2017-12-15T14:29:01.347Z,22.07
2017-12-15T14:31:31.475Z,28.80
2017-12-15T14:34:01.196Z,16.73
2017-12-15T14:36:30.602Z,18.27
2017-12-15T14:39:00.243Z,19.27
2017-12-15T14:41:30.984Z,18.63
2017-12-15T14:44:00.182Z,17.60
2017-12-15T14:46:29.286Z,19.37
2017-12-15T14:48:59.335Z,19.90
2017-12-15T14:51:30.245Z,16.90
2017-12-15T14:54:02.076Z,49.27
2017-12-15T14:56:32.024Z,66.30
2017-12-15T14:59:01.673Z,51.13
2017-12-15T15:01:31.537Z,49.57
2017-12-15T15:04:00.691Z,45.20
2017-12-15T15:06:30.083Z,42.67
2017-12-15T15:09:01.911Z,47.40
2017-12-15T15:11:30.952Z,38.40
2017-12-15T15:14:00.107Z,47.67
2017-12-15T15:16:29.093Z,61.20
2017-12-15T15:18:58.437Z,36.83
2017-12-15T15:21:27.393Z,61.43
2017-12-15T15:23:56.885Z,52.00
2017-12-15T15:26:26.114Z,46.00
2017-12-15T15:29:03.528Z,51.07
2017-12-15T15:31:32.939Z,45.77
2017-12-15T15:34:03.135Z,52.10
2017-12-15T15:36:34.962Z,43.10
2017-12-15T15:39:05.126Z,42.53
2017-12-15T15:41:34.256Z,40.57
2017-12-15T15:44:04.839Z,55.13
2017-12-15T15:46:34.190Z,34.93
2017-12-15T15:49:04.906Z,35.30
2017-12-15T15:51:35.034Z,29.00
2017-12-15T15:54:05.298Z,22.03
2017-12-15T15:56:34.609Z,19.47
2017-12-15T15:59:04.006Z,21.87
2017-12-15T16:01:33.287Z,23.00
2017-12-15T16:04:02.698Z,23.47
2017-12-15T16:06:32.365Z,20.30
2017-12-15T16:09:01.902Z,28.87
2017-12-15T16:11:31.462Z,29.00
2017-12-15T16:14:00.699Z,24.77
2017-12-15T16:16:29.933Z,27.10
2017-12-15T16:19:00.077Z,25.20
2017-12-15T16:24:04.965Z,22.43
2017-12-15T16:26:34.014Z,31.50
2017-12-15T16:29:06.697Z,34.17
2017-12-15T16:31:36.508Z,31.27
2017-12-15T16:34:06.676Z,33.83
2017-12-15T16:36:36.051Z,34.87
2017-12-15T16:39:05.964Z,32.47
2017-12-15T16:41:35.345Z,36.07
2017-12-15T16:44:06.313Z,37.63
2017-12-15T16:46:36.520Z,28.90
2017-12-15T16:49:06.581Z,30.80
2017-12-15T16:51:35.852Z,29.13
2017-12-15T16:54:05.849Z,39.30
2017-12-15T16:56:35.969Z,37.20
2017-12-15T16:59:05.270Z,31.20
2017-12-15T17:01:35.929Z,34.10
2017-12-15T17:04:05.247Z,38.40
2017-12-15T17:06:34.424Z,31.50
2017-12-15T17:09:03.628Z,34.90
2017-12-15T17:11:33.967Z,30.13
2017-12-15T17:14:03.426Z,33.77
2017-12-15T17:16:32.727Z,27.30
2017-12-15T17:19:01.906Z,22.73
2017-12-15T17:21:31.227Z,23.30
2017-12-15T17:24:01.568Z,20.40
2017-12-15T17:26:32.641Z,22.13
2017-12-15T17:29:01.932Z,24.03
2017-12-15T17:31:31.813Z,19.53
2017-12-15T17:34:01.293Z,20.00
2017-12-15T17:36:31.180Z,21.00
2017-12-15T17:39:00.551Z,22.17
2017-12-15T17:41:29.812Z,16.50
2017-12-15T17:43:59.102Z,28.20
2017-12-15T17:46:28.590Z,24.07
2017-12-15T17:48:58.650Z,44.00
2017-12-15T17:51:28.680Z,29.30
2017-12-15T17:54:00.642Z,34.40
2017-12-15T17:56:30.135Z,27.07
2017-12-15T17:59:00.034Z,32.30
2017-12-15T18:01:30.885Z,31.60
2017-12-15T18:04:01.973Z,29.07
2017-12-15T18:06:31.298Z,24.87
2017-12-15T18:09:00.507Z,20.27
2017-12-15T18:11:29.792Z,14.90
2017-12-15T18:14:00.802Z,16.90
2017-12-15T18:16:30.142Z,20.80
2017-12-15T18:18:59.665Z,14.60
2017-12-15T18:21:29.277Z,20.47
2017-12-15T18:26:34.145Z,27.57
2017-12-15T18:29:03.491Z,19.10
2017-12-15T18:31:33.566Z,18.53
2017-12-15T18:34:03.521Z,18.07
2017-12-15T18:36:32.997Z,17.77
2017-12-15T18:39:25.193Z,15.10
2017-12-15T18:41:54.234Z,18.20
2017-12-15T18:44:23.379Z,19.33
2017-12-15T18:46:52.554Z,18.60
2017-12-15T18:49:21.676Z,19.07
2017-12-15T18:51:52.618Z,18.33
2017-12-15T18:54:22.838Z,15.77
2017-12-15T18:56:52.410Z,10.20
2017-12-15T18:59:21.754Z,16.73
2017-12-15T19:01:51.308Z,15.70
2017-12-15T19:04:21.593Z,12.57
2017-12-15T19:06:51.436Z,38.10
2017-12-15T19:09:21.269Z,23.53
2017-12-15T19:11:50.705Z,19.37
2017-12-15T19:14:21.065Z,12.43
2017-12-15T19:16:50.130Z,26.53
2017-12-15T19:19:19.660Z,21.97
2017-12-15T19:21:49.888Z,32.63
2017-12-15T19:24:19.183Z,16.97
2017-12-15T19:26:48.358Z,21.67
2017-12-15T19:29:18.394Z,17.47
2017-12-15T19:31:48.716Z,15.80
2017-12-15T19:34:17.921Z,10.73
2017-12-15T19:36:47.137Z,15.00
2017-12-15T19:39:16.231Z,13.50
2017-12-15T19:41:45.321Z,19.37
2017-12-15T19:44:15.644Z,12.30
2017-12-15T19:46:45.076Z,15.43
2017-12-15T19:49:14.266Z,12.43
2017-12-15T19:51:46.691Z,6.10
2017-12-15T19:54:17.637Z,15.13
2017-12-15T19:56:47.721Z,11.73
2017-12-15T19:59:16.850Z,8.10
2017-12-15T20:01:46.056Z,6.57
2017-12-15T20:04:17.716Z,4.83
2017-12-15T20:06:47.538Z,20.10
2017-12-15T20:09:16.773Z,4.93
2017-12-15T20:11:50.797Z,7.50
2017-12-15T20:14:19.850Z,7.47
2017-12-15T20:16:48.970Z,6.10
2017-12-15T20:19:18.048Z,5.37
2017-12-15T20:21:47.405Z,8.10
2017-12-15T20:24:17.040Z,3.77
2017-12-15T20:26:46.309Z,5.83
2017-12-15T20:29:15.570Z,5.23
2017-12-15T20:31:44.822Z,6.30
2017-12-15T20:34:14.454Z,7.53
2017-12-15T20:36:44.812Z,9.83
2017-12-15T20:39:14.125Z,5.70
2017-12-15T20:41:46.320Z,5.77
2017-12-15T20:44:15.434Z,7.63
2017-12-15T20:46:44.807Z,2.90
2017-12-15T20:49:14.606Z,8.43
2017-12-15T20:51:44.035Z,5.57
2017-12-15T20:54:13.524Z,4.33
2017-12-15T20:56:43.061Z,7.10
2017-12-15T20:59:23.546Z,2.30
2017-12-15T21:02:00.137Z,3.13
2017-12-15T21:04:29.815Z,3.17
2017-12-15T21:06:59.165Z,2.43
2017-12-15T21:09:28.504Z,3.10
2017-12-15T21:11:57.950Z,6.63
2017-12-15T21:14:27.356Z,7.30
2017-12-15T21:16:57.500Z,5.20
2017-12-15T21:19:26.842Z,6.20
2017-12-15T21:21:56.234Z,4.97
2017-12-15T21:24:27.015Z,9.40
2017-12-15T21:26:56.779Z,4.10
2017-12-15T21:29:26.965Z,2.70
2017-12-15T21:31:57.986Z,4.67
2017-12-15T21:34:27.073Z,4.60
2017-12-15T21:36:56.066Z,7.10
2017-12-15T21:39:24.982Z,10.47
2017-12-15T21:41:54.126Z,5.00
2017-12-15T21:44:23.092Z,8.30
2017-12-15T21:46:56.550Z,6.57
2017-12-15T21:49:25.564Z,4.37
2017-12-15T21:51:54.578Z,4.83
2017-12-15T21:54:23.633Z,8.33
2017-12-15T21:56:54.944Z,5.10
2017-12-15T21:59:24.109Z,9.33
2017-12-15T22:01:55.315Z,3.43
2017-12-15T22:04:24.351Z,6.10
2017-12-15T22:06:53.475Z,5.27
2017-12-15T22:09:25.572Z,4.73
2017-12-15T22:11:55.611Z,9.47
2017-12-15T22:14:24.763Z,6.63
2017-12-15T22:16:54.858Z,2.93
2017-12-15T22:19:24.157Z,8.23
2017-12-15T22:21:53.202Z,4.40
2017-12-15T22:24:24.887Z,3.03
2017-12-15T22:26:53.800Z,5.97
2017-12-15T22:29:22.715Z,5.70
2017-12-15T22:31:51.998Z,9.03
2017-12-15T22:34:20.957Z,8.20
2017-12-15T22:36:49.868Z,4.90
2017-12-15T22:39:18.885Z,30.17
2017-12-15T22:41:47.916Z,8.77
2017-12-15T22:44:17.254Z,8.53
2017-12-15T22:46:47.060Z,7.73
2017-12-15T22:49:16.318Z,7.63
2017-12-15T22:51:46.130Z,8.37
2017-12-15T22:54:16.245Z,5.00
2017-12-15T22:56:45.795Z,6.80
2017-12-15T22:59:14.924Z,4.17
2017-12-15T23:01:45.471Z,6.23
2017-12-15T23:04:14.785Z,5.90
2017-12-15T23:06:44.271Z,10.17
2017-12-15T23:09:13.671Z,5.03
2017-12-15T23:11:44.609Z,5.80
2017-12-15T23:14:13.917Z,5.27
2017-12-15T23:16:44.406Z,5.27
2017-12-15T23:19:14.281Z,5.33
2017-12-15T23:21:44.349Z,9.63
2017-12-15T23:24:13.884Z,7.07
2017-12-15T23:26:43.176Z,8.50
2017-12-15T23:29:12.268Z,8.90
2017-12-15T23:34:20.568Z,7.70
2017-12-15T23:36:50.863Z,4.80
2017-12-15T23:39:23.812Z,5.03
2017-12-15T23:41:54.903Z,7.10
2017-12-15T23:47:02.088Z,6.43
2017-12-15T23:49:31.581Z,5.60
2017-12-15T23:52:00.869Z,5.87
2017-12-15T23:54:41.740Z,5.20
2017-12-15T23:57:11.615Z,12.77
2017-12-15T23:59:42.709Z,8.77
